Time;durP1;ratioP1;P1;durP2;ratioP2;P2;SDS_P1;SDS_P2;PMS_P1;PMS_P2;Temp;Humidity;BMP_temperature;BMP_pressure;BME280_temperature;BME280_humidity;BME280_pressure;Samples;Min_cycle;Max_cycle;Signal;HPM_P1;HPM_P2
2023/09/20 00:00:07;;;;;;;3.05;2.20;;;;;;;13.17;100.00;95938.28;4990346;28;20505;-66
2023/09/20 00:02:36;;;;;;;2.38;2.17;;;;;;;13.17;100.00;95933.00;4980913;28;20426;-67
2023/09/20 00:05:04;;;;;;;2.53;2.40;;;;;;;13.14;100.00;95941.19;4986312;28;20444;-66
2023/09/20 00:07:30;;;;;;;2.78;2.20;;;;;;;13.09;100.00;95938.19;4986831;28;20381;-66
2023/09/20 00:09:55;;;;;;;2.28;2.08;;;;;;;13.08;100.00;95933.06;4988262;28;20049;-66
2023/09/20 00:12:21;;;;;;;3.08;2.60;;;;;;;13.04;100.00;95936.03;4990330;28;20028;-66
2023/09/20 00:14:47;;;;;;;2.13;2.03;;;;;;;13.01;100.00;95936.28;4970414;28;20026;-66
2023/09/20 00:17:13;;;;;;;2.47;2.20;;;;;;;12.98;100.00;95936.59;4986330;28;20373;-66
2023/09/20 00:19:40;;;;;;;4.28;2.30;;;;;;;12.96;100.00;95935.13;4974598;28;20030;-66
2023/09/20 00:22:10;;;;;;;2.35;2.15;;;;;;;12.95;100.00;95936.09;4985639;28;20381;-67
2023/09/20 00:24:36;;;;;;;2.30;2.08;;;;;;;12.95;100.00;95928.16;4990070;28;20030;-66
2023/09/20 00:27:03;;;;;;;4.05;2.05;;;;;;;12.94;100.00;95937.88;4978283;28;20030;-66
2023/09/20 00:29:29;;;;;;;4.22;2.40;;;;;;;12.94;100.00;95937.06;4991755;28;20026;-66
2023/09/20 00:31:55;;;;;;;2.00;1.90;;;;;;;12.93;100.00;95932.75;4988729;28;20040;-66
2023/09/20 00:34:21;;;;;;;5.20;2.50;;;;;;;12.92;100.00;95931.94;4991312;28;20049;-66
2023/09/20 00:36:48;;;;;;;2.33;2.22;;;;;;;12.89;100.00;95924.31;4977321;28;20097;-67
2023/09/20 00:39:14;;;;;;;2.00;1.90;;;;;;;12.84;100.00;95922.09;4990561;28;20061;-66
2023/09/20 00:41:41;;;;;;;2.80;2.17;;;;;;;12.86;100.00;95914.03;4971780;28;20100;-67
2023/09/20 00:44:06;;;;;;;3.35;2.17;;;;;;;12.86;100.00;95914.84;4992167;28;20026;-67
2023/09/20 00:46:33;;;;;;;2.47;2.28;;;;;;;12.83;100.00;95915.16;4966653;28;20031;-66
2023/09/20 00:49:00;;;;;;;7.07;2.65;;;;;;;12.82;100.00;95908.22;4976867;28;20040;-66
2023/09/20 00:51:27;;;;;;;7.07;1.98;;;;;;;12.83;100.00;95907.25;4975172;28;20038;-65
2023/09/20 00:53:57;;;;;;;6.65;2.17;;;;;;;12.80;100.00;95902.25;4989287;28;20030;-66
2023/09/20 00:56:25;;;;;;;2.63;2.10;;;;;;;12.80;100.00;95896.97;4991484;28;20137;-66
2023/09/20 00:58:55;;;;;;;2.10;2.00;;;;;;;12.77;100.00;95899.94;4980952;28;20034;-67
2023/09/20 01:01:22;;;;;;;4.50;2.10;;;;;;;12.73;100.00;95895.94;4977130;28;20063;-65
2023/09/20 01:03:48;;;;;;;3.63;1.90;;;;;;;12.71;100.00;95903.16;4969920;28;20079;-66
2023/09/20 01:06:17;;;;;;;5.15;2.30;;;;;;;12.73;100.00;95907.31;4991847;28;20376;-66
2023/09/20 01:08:46;;;;;;;2.92;2.30;;;;;;;12.73;100.00;95895.94;4981956;28;20037;-65
2023/09/20 01:11:13;;;;;;;3.15;2.40;;;;;;;12.68;100.00;95895.53;4974794;28;20047;-66
2023/09/20 01:13:40;;;;;;;4.75;2.47;;;;;;;12.65;100.00;95898.47;4987809;28;20031;-66
2023/09/20 01:16:09;;;;;;;4.60;2.28;;;;;;;12.63;100.00;95897.78;4987614;28;20639;-65
2023/09/20 01:18:34;;;;;;;3.00;2.17;;;;;;;12.65;100.00;95896.69;4978802;28;20106;-66
2023/09/20 01:21:02;;;;;;;8.15;2.95;;;;;;;12.59;100.00;95903.38;4973941;28;20046;-65
2023/09/20 01:23:28;;;;;;;2.85;2.58;;;;;;;12.57;100.00;95897.41;4984623;28;20030;-65
2023/09/20 01:25:56;;;;;;;2.75;2.40;;;;;;;12.56;100.00;95898.41;4990140;28;20108;-65
2023/09/20 01:28:25;;;;;;;2.42;2.22;;;;;;;12.51;100.00;95897.19;4966975;28;20461;-65
2023/09/20 01:30:51;;;;;;;5.85;2.67;;;;;;;12.51;100.00;95891.91;4986706;28;20042;-66
2023/09/20 01:33:18;;;;;;;3.75;1.90;;;;;;;12.53;100.00;95897.84;4991143;28;20105;-66
2023/09/20 01:35:47;;;;;;;4.57;2.30;;;;;;;12.52;100.00;95888.28;4987759;28;20022;-66
2023/09/20 01:38:13;;;;;;;2.22;2.13;;;;;;;12.51;100.00;95895.38;4981208;28;20030;-66
2023/09/20 01:40:39;;;;;;;5.72;2.42;;;;;;;12.47;100.00;95888.72;4960332;28;20050;-65
2023/09/20 01:43:08;;;;;;;6.50;2.35;;;;;;;12.49;100.00;95885.94;4981511;28;20033;-66
2023/09/20 01:45:35;;;;;;;4.50;2.30;;;;;;;12.48;100.00;95887.72;4982338;28;20059;-66
2023/09/20 01:48:06;;;;;;;3.45;2.17;;;;;;;12.48;100.00;95885.09;4975066;28;20041;-65
2023/09/20 01:50:33;;;;;;;4.22;2.45;;;;;;;12.46;100.00;95876.50;4974896;28;20018;-66
2023/09/20 01:53:08;;;;;;;2.55;2.25;;;;;;;12.47;100.00;95883.44;4973084;28;20039;-66
2023/09/20 01:55:36;;;;;;;5.03;2.63;;;;;;;12.47;100.00;95878.16;4972481;28;20042;-66
2023/09/20 01:58:07;;;;;;;3.72;2.10;;;;;;;12.45;100.00;95874.81;4987631;28;20035;-65
2023/09/20 02:00:40;;;;;;;2.67;2.22;;;;;;;12.45;100.00;95877.47;4960246;28;20030;-65
2023/09/20 02:03:19;;;;;;;2.58;2.15;;;;;;;12.43;100.00;95871.50;4986623;28;20030;-66
2023/09/20 02:05:55;;;;;;;4.15;2.35;;;;;;;12.40;100.00;95859.47;4971811;28;20026;-65
2023/09/20 02:08:20;;;;;;;3.28;2.10;;;;;;;12.39;100.00;95870.16;4971708;28;20030;-65
2023/09/20 02:10:46;;;;;;;4.32;2.75;;;;;;;12.39;100.00;95863.06;4986875;28;20035;-66
2023/09/20 02:13:18;;;;;;;4.75;2.28;;;;;;;12.44;100.00;95854.69;4982070;28;20052;-65
2023/09/20 02:15:45;;;;;;;5.18;2.20;;;;;;;12.38;100.00;95848.22;4978516;28;20090;-65
2023/09/20 02:18:11;;;;;;;4.45;2.40;;;;;;;12.36;100.00;95838.78;4967582;28;20109;-65
2023/09/20 02:20:37;;;;;;;2.67;2.40;;;;;;;12.31;100.00;95831.28;4964709;28;20034;-65
2023/09/20 02:23:05;;;;;;;4.80;2.60;;;;;;;12.28;100.00;95821.88;4990500;28;20107;-65
2023/09/20 02:25:32;;;;;;;7.13;2.50;;;;;;;12.29;100.00;95836.75;4976214;28;20026;-65
2023/09/20 02:28:02;;;;;;;3.95;2.20;;;;;;;12.27;100.00;95836.06;4994537;28;20042;-66
2023/09/20 02:30:36;;;;;;;6.65;1.98;;;;;;;12.29;100.00;95823.53;4965944;28;20026;-65
2023/09/20 02:33:05;;;;;;;3.45;2.30;;;;;;;12.25;100.00;95810.78;4979403;28;20059;-66
2023/09/20 02:35:32;;;;;;;3.88;2.42;;;;;;;12.22;100.00;95803.97;4975902;28;20026;-66
2023/09/20 02:37:59;;;;;;;3.08;2.40;;;;;;;12.23;100.00;95800.34;4975624;28;20022;-65
2023/09/20 02:40:26;;;;;;;5.72;2.65;;;;;;;12.17;100.00;95800.97;4980574;28;20038;-66
2023/09/20 02:43:03;;;;;;;2.67;2.47;;;;;;;12.16;100.00;95802.78;4990393;28;20027;-65
2023/09/20 02:45:33;;;;;;;4.07;2.20;;;;;;;12.17;100.00;95803.59;4984733;28;20058;-65
2023/09/20 02:48:01;;;;;;;10.35;4.90;;;;;;;12.21;100.00;95809.44;4986307;28;20022;-66
2023/09/20 02:50:28;;;;;;;3.13;2.60;;;;;;;12.17;100.00;95808.88;4980234;28;20023;-65
2023/09/20 02:52:56;;;;;;;4.10;2.38;;;;;;;12.15;100.00;95805.56;4980210;28;20056;-65
2023/09/20 02:55:22;;;;;;;3.58;2.30;;;;;;;12.15;100.00;95802.94;4958082;28;20026;-65
2023/09/20 02:57:49;;;;;;;2.42;2.22;;;;;;;12.16;100.00;95801.94;4984550;28;20026;-66
2023/09/20 03:00:21;;;;;;;3.97;2.20;;;;;;;12.11;100.00;95794.47;4989141;28;20034;-65
2023/09/20 03:03:02;;;;;;;3.50;2.95;;;;;;;12.10;100.00;95797.28;4982015;28;20042;-65
2023/09/20 03:05:30;;;;;;;3.47;2.30;;;;;;;12.04;100.00;95796.88;4967912;28;20026;-65
2023/09/20 03:07:56;;;;;;;2.70;2.20;;;;;;;12.03;100.00;95783.84;4992613;28;20033;-66
2023/09/20 03:10:22;;;;;;;4.75;2.53;;;;;;;12.00;100.00;95792.03;4980790;28;20411;-65
2023/09/20 03:12:51;;;;;;;2.30;2.10;;;;;;;11.98;100.00;95793.97;4991269;28;20030;-67
2023/09/20 03:15:23;;;;;;;7.13;5.18;;;;;;;12.00;100.00;95782.28;4978229;28;20034;-65
2023/09/20 03:17:53;;;;;;;4.43;2.90;;;;;;;11.98;100.00;95776.31;4979079;28;20130;-65
2023/09/20 03:20:23;;;;;;;3.22;2.30;;;;;;;11.97;100.00;95774.66;4993796;28;20121;-65
2023/09/20 03:22:59;;;;;;;2.88;2.20;;;;;;;11.94;100.00;95767.06;4995020;28;20555;-65
2023/09/20 03:25:28;;;;;;;2.30;2.20;;;;;;;11.92;100.00;95754.97;4979386;28;20033;-65
2023/09/20 03:27:55;;;;;;;3.65;2.50;;;;;;;11.85;100.00;95758.22;4993663;28;20027;-65
2023/09/20 03:30:21;;;;;;;3.65;2.33;;;;;;;11.89;100.00;95756.13;4964188;28;20026;-65
2023/09/20 03:32:49;;;;;;;3.53;2.88;;;;;;;11.92;100.00;95761.09;4978251;28;20501;-65
2023/09/20 03:35:17;;;;;;;5.88;2.50;;;;;;;11.89;100.00;95758.75;4976583;28;20022;-67
2023/09/20 03:37:44;;;;;;;3.65;2.30;;;;;;;11.86;100.00;95754.59;4980363;28;20026;-65
2023/09/20 03:40:16;;;;;;;7.55;2.85;;;;;;;11.87;100.00;95753.63;4976907;28;20075;-65
2023/09/20 03:42:43;;;;;;;2.60;2.40;;;;;;;11.87;100.00;95747.53;4995301;28;20498;-67
2023/09/20 03:45:15;;;;;;;2.90;2.53;;;;;;;11.87;100.00;95753.63;4951425;28;20043;-65
2023/09/20 03:47:49;;;;;;;5.80;2.90;;;;;;;11.86;100.00;95748.50;4980596;28;20148;-65
2023/09/20 03:50:18;;;;;;;5.15;2.30;;;;;;;11.81;100.00;95743.66;4990965;28;20041;-65
2023/09/20 03:52:45;;;;;;;4.07;2.58;;;;;;;11.83;100.00;95743.53;4983135;28;20057;-65
2023/09/20 03:55:12;;;;;;;3.08;2.33;;;;;;;11.80;100.00;95736.75;4984121;28;20083;-65
2023/09/20 03:57:38;;;;;;;3.45;2.22;;;;;;;11.82;100.00;95739.22;4994352;28;20027;-65
2023/09/20 04:00:11;;;;;;;3.65;2.38;;;;;;;11.83;100.00;95733.00;4983945;28;20121;-65
2023/09/20 04:02:40;;;;;;;4.35;2.58;;;;;;;11.82;100.00;95731.28;4994711;28;20065;-67
2023/09/20 04:05:13;;;;;;;2.88;2.60;;;;;;;11.81;100.00;95733.13;4993841;28;20042;-66
2023/09/20 04:07:44;;;;;;;5.50;2.53;;;;;;;11.83;100.00;95733.00;4994201;28;20062;-65
2023/09/20 04:10:11;;;;;;;2.65;2.45;;;;;;;11.77;100.00;95731.75;4992724;28;20029;-67
2023/09/20 04:12:38;;;;;;;2.63;2.53;;;;;;;11.76;100.00;95743.28;4989096;28;20372;-65
2023/09/20 04:15:05;;;;;;;5.38;2.50;;;;;;;11.77;100.00;95741.47;4987218;28;20045;-64
2023/09/20 04:17:38;;;;;;;2.88;2.72;;;;;;;11.75;100.00;95734.53;4989696;28;20061;-64
2023/09/20 04:20:05;;;;;;;8.10;7.40;;;;;;;11.74;100.00;95726.78;4987997;28;20098;-64
2023/09/20 04:22:32;;;;;;;3.22;2.92;;;;;;;11.74;100.00;95722.31;4992477;28;20501;-67
2023/09/20 04:24:59;;;;;;;2.88;2.60;;;;;;;11.70;100.00;95720.97;4959933;28;20037;-67
2023/09/20 04:27:28;;;;;;;6.28;2.90;;;;;;;11.70;100.00;95723.59;4994956;28;20048;-64
2023/09/20 04:29:53;;;;;;;4.22;2.58;;;;;;;11.68;100.00;95722.94;4974952;28;20586;-64
2023/09/20 04:32:20;;;;;;;3.38;2.47;;;;;;;11.67;100.00;95718.63;4993453;28;20054;-64
2023/09/20 04:34:46;;;;;;;3.00;2.80;;;;;;;11.68;100.00;95715.03;4978185;28;20494;-65
2023/09/20 04:37:16;;;;;;;2.53;2.33;;;;;;;11.67;100.00;95708.09;4991333;28;20029;-67
2023/09/20 04:39:42;;;;;;;3.25;2.70;;;;;;;11.67;100.00;95710.72;4982745;28;20038;-67
2023/09/20 04:42:12;;;;;;;4.90;2.85;;;;;;;11.69;100.00;95706.13;4986892;28;20056;-64
2023/09/20 04:44:39;;;;;;;2.97;2.78;;;;;;;11.67;100.00;95699.34;4969088;28;20554;-64
2023/09/20 04:47:05;;;;;;;3.40;2.40;;;;;;;11.60;100.00;95699.94;4983853;28;20084;-64
2023/09/20 04:49:31;;;;;;;3.00;2.50;;;;;;;11.64;100.00;95695.19;4993515;28;20030;-64
2023/09/20 04:52:00;;;;;;;3.47;2.78;;;;;;;11.61;100.00;95692.88;4989452;28;20027;-65
2023/09/20 04:54:29;;;;;;;6.00;2.40;;;;;;;11.59;100.00;95689.53;4985773;28;20034;-67
2023/09/20 04:56:55;;;;;;;3.38;2.60;;;;;;;11.59;100.00;95686.88;4961313;28;20525;-64
2023/09/20 04:59:22;;;;;;;2.50;2.30;;;;;;;11.57;100.00;95680.94;4988555;28;20026;-64
2023/09/20 05:01:50;;;;;;;2.40;2.30;;;;;;;11.56;100.00;95687.19;4984931;28;20026;-67
2023/09/20 05:04:19;;;;;;;5.00;2.45;;;;;;;11.58;100.00;95688.72;4980678;28;20022;-66
2023/09/20 05:06:49;;;;;;;2.90;2.70;;;;;;;11.60;100.00;95689.38;4994817;28;20525;-67
2023/09/20 05:09:16;;;;;;;2.30;2.08;;;;;;;11.64;100.00;95689.09;4976080;28;20034;-66
2023/09/20 05:11:42;;;;;;;5.47;2.50;;;;;;;11.63;100.00;95682.16;4992422;28;20442;-67
2023/09/20 05:14:11;;;;;;;3.53;2.55;;;;;;;11.62;100.00;95686.63;4982815;28;20022;-66
2023/09/20 05:16:38;;;;;;;6.65;2.88;;;;;;;11.62;100.00;95694.53;4958170;28;20030;-66
2023/09/20 05:19:04;;;;;;;13.45;2.90;;;;;;;11.63;100.00;95693.53;4975017;28;20491;-66
2023/09/20 05:21:30;;;;;;;3.25;2.75;;;;;;;11.59;100.00;95690.38;4994472;28;20031;-66
2023/09/20 05:23:55;;;;;;;4.82;2.70;;;;;;;11.54;100.00;95682.06;4959691;28;20027;-66
2023/09/20 05:26:23;;;;;;;2.97;2.80;;;;;;;11.57;100.00;95683.56;4997948;28;20029;-66
2023/09/20 05:28:50;;;;;;;5.30;2.85;;;;;;;11.59;100.00;95697.44;4980706;28;20039;-66
2023/09/20 05:31:16;;;;;;;4.63;3.15;;;;;;;11.65;100.00;95701.28;4989925;28;20023;-67
2023/09/20 05:33:42;;;;;;;4.90;2.70;;;;;;;11.67;100.00;95709.88;4983515;28;20045;-66
2023/09/20 05:36:08;;;;;;;2.63;2.42;;;;;;;11.66;100.00;95706.44;4981577;28;20062;-66
2023/09/20 05:38:40;;;;;;;4.85;2.92;;;;;;;11.67;100.00;95700.19;4992954;28;20033;-66
2023/09/20 05:41:10;;;;;;;3.17;2.60;;;;;;;11.66;100.00;95701.16;4989043;28;20022;-67
2023/09/20 05:43:36;;;;;;;4.45;2.78;;;;;;;11.64;100.00;95700.47;4979758;28;20039;-66
2023/09/20 05:46:07;;;;;;;3.60;2.72;;;;;;;11.60;100.00;95694.66;4989279;28;20585;-65
2023/09/20 05:48:33;;;;;;;2.97;2.78;;;;;;;11.59;100.00;95698.28;4984793;28;20065;-67
2023/09/20 05:51:01;;;;;;;4.72;4.20;;;;;;;11.60;100.00;95704.38;4991898;28;20044;-66
2023/09/20 05:53:28;;;;;;;4.72;3.83;;;;;;;11.59;100.00;95705.34;4961409;28;20472;-67
2023/09/20 05:55:54;;;;;;;5.03;3.42;;;;;;;11.59;100.00;95715.88;4974265;28;20056;-67
2023/09/20 05:58:22;;;;;;;8.88;3.45;;;;;;;11.59;100.00;95708.81;4973303;28;20041;-67
2023/09/20 06:00:50;;;;;;;3.25;2.97;;;;;;;11.62;100.00;95712.97;4981181;28;20519;-66
2023/09/20 06:03:17;;;;;;;6.57;3.17;;;;;;;11.66;100.00;95705.59;4992637;28;20030;-66
2023/09/20 06:05:48;;;;;;;5.13;2.83;;;;;;;11.70;100.00;95720.97;5053322;28;20419;-66
2023/09/20 06:08:15;;;;;;;4.97;2.72;;;;;;;11.68;100.00;95728.22;4985885;28;20037;-66
2023/09/20 06:10:41;;;;;;;6.68;3.65;;;;;;;11.69;100.00;95729.88;4968974;28;20083;-66
2023/09/20 06:13:09;;;;;;;7.22;3.13;;;;;;;11.71;100.00;95727.91;4992558;28;20038;-66
2023/09/20 06:15:36;;;;;;;4.63;3.08;;;;;;;11.73;100.00;95727.78;4987716;28;20076;-66
2023/09/20 06:18:04;;;;;;;2.83;2.63;;;;;;;11.79;100.00;95728.97;4992508;28;20034;-66
2023/09/20 06:20:34;;;;;;;3.22;2.90;;;;;;;11.82;100.00;95726.88;4990113;28;20122;-65
2023/09/20 06:23:00;;;;;;;2.80;2.63;;;;;;;11.87;100.00;95735.16;4990164;28;20030;-66
2023/09/20 06:25:26;;;;;;;3.65;3.15;;;;;;;11.89;100.00;95746.38;4992465;28;20065;-66
2023/09/20 06:27:53;;;;;;;4.45;3.13;;;;;;;11.93;100.00;95748.72;4991763;28;20030;-66
2023/09/20 06:30:20;;;;;;;4.07;3.40;;;;;;;11.98;100.00;95751.78;4974664;28;20505;-66
2023/09/20 06:32:47;;;;;;;4.95;3.28;;;;;;;11.99;100.00;95748.16;4984216;28;20027;-66
2023/09/20 06:35:19;;;;;;;5.32;4.03;;;;;;;12.01;100.00;95756.78;4978638;28;20100;-66
2023/09/20 06:37:51;;;;;;;4.45;3.20;;;;;;;12.03;100.00;95760.09;4968846;28;20034;-66
2023/09/20 06:40:23;;;;;;;7.55;3.08;;;;;;;12.06;100.00;95756.34;4982642;28;20041;-66
2023/09/20 06:42:53;;;;;;;4.68;3.15;;;;;;;12.07;100.00;95755.34;4983081;28;20022;-67
2023/09/20 06:45:19;;;;;;;4.05;3.30;;;;;;;12.12;100.00;95764.47;4957487;28;20188;-67
2023/09/20 06:47:46;;;;;;;7.53;3.35;;;;;;;12.15;100.00;95756.22;4997747;28;20033;-66
2023/09/20 06:50:13;;;;;;;4.15;3.53;;;;;;;12.23;100.00;95750.22;4975382;28;20574;-67
2023/09/20 06:52:45;;;;;;;6.05;3.50;;;;;;;12.28;100.00;95749.75;4984768;28;20192;-67
2023/09/20 06:55:16;;;;;;;5.60;3.95;;;;;;;12.35;100.00;95744.72;4986999;28;20087;-66
2023/09/20 06:57:43;;;;;;;4.50;4.10;;;;;;;12.45;100.00;95742.81;4993049;28;20022;-66
2023/09/20 07:00:25;;;;;;;7.45;5.38;;;;;;;12.55;100.00;95733.00;4985035;28;20029;-66
2023/09/20 07:02:54;;;;;;;5.65;4.65;;;;;;;12.70;100.00;95740.34;4979360;28;20425;-66
2023/09/20 07:05:28;;;;;;;11.43;4.57;;;;;;;12.82;100.00;95728.56;4994523;28;20020;-66
2023/09/20 07:07:54;;;;;;;6.65;5.00;;;;;;;12.93;100.00;95724.00;4997454;28;20452;-66
2023/09/20 07:10:22;;;;;;;8.95;5.30;;;;;;;13.12;100.00;95729.06;4980824;28;20450;-66
2023/09/20 07:12:50;;;;;;;8.65;5.40;;;;;;;13.36;100.00;95724.06;4982538;28;20057;-66
2023/09/20 07:15:18;;;;;;;7.45;4.32;;;;;;;13.53;100.00;95709.13;4982130;28;20026;-66
2023/09/20 07:17:58;;;;;;;11.55;5.38;;;;;;;13.68;100.00;95715.47;4985408;28;20037;-67
2023/09/20 07:20:32;;;;;;;9.25;5.50;;;;;;;13.96;100.00;95720.50;4997950;28;20034;-66
2023/09/20 07:22:59;;;;;;;3.58;3.17;;;;;;;14.26;100.00;95718.22;4987492;28;20041;-66
2023/09/20 07:25:27;;;;;;;10.07;4.25;;;;;;;14.67;100.00;95719.19;4986627;28;20094;-66
2023/09/20 07:27:55;;;;;;;5.00;3.60;;;;;;;15.00;100.00;95721.84;5001300;28;20105;-66
2023/09/20 07:30:22;;;;;;;3.90;3.30;;;;;;;15.16;100.00;95724.47;4992317;28;20022;-66
2023/09/20 07:32:51;;;;;;;3.17;2.78;;;;;;;15.23;100.00;95727.25;4997706;28;20073;-66
2023/09/20 07:35:26;;;;;;;3.53;2.55;;;;;;;15.23;100.00;95731.75;4982207;28;20029;-67
2023/09/20 07:37:57;;;;;;;2.30;2.10;;;;;;;15.27;100.00;95738.34;4999302;28;20033;-66
2023/09/20 07:40:35;;;;;;;3.90;2.30;;;;;;;15.25;100.00;95745.66;4980891;28;20033;-66
2023/09/20 07:43:07;;;;;;;2.63;1.98;;;;;;;15.28;100.00;95748.81;4998940;28;20018;-66
2023/09/20 07:45:38;;;;;;;2.35;2.15;;;;;;;15.27;100.00;95763.06;4977994;28;20054;-66
2023/09/20 07:48:17;;;;;;;4.75;2.22;;;;;;;15.22;100.00;95773.31;4975839;28;20036;-66
2023/09/20 07:50:43;;;;;;;2.40;2.20;;;;;;;15.30;100.00;95781.28;4980438;28;20026;-66
2023/09/20 07:53:15;;;;;;;2.85;2.17;;;;;;;15.43;100.00;95786.06;4994248;28;20119;-66
2023/09/20 07:55:44;;;;;;;4.55;2.38;;;;;;;15.59;100.00;95793.13;4988679;28;20061;-66
2023/09/20 07:58:11;;;;;;;2.10;1.90;;;;;;;15.73;100.00;95793.44;4979142;28;20095;-67
2023/09/20 08:00:45;;;;;;;4.32;2.00;;;;;;;15.81;100.00;95779.31;4962533;28;20033;-66
2023/09/20 08:03:12;;;;;;;3.83;1.77;;;;;;;15.79;100.00;95776.81;4975388;28;20117;-66
2023/09/20 08:05:38;;;;;;;2.03;1.88;;;;;;;15.74;100.00;95776.50;4980204;28;20023;-66
2023/09/20 08:08:08;;;;;;;3.95;2.08;;;;;;;15.71;100.00;95776.84;4976801;28;20034;-66
2023/09/20 08:10:36;;;;;;;2.00;1.90;;;;;;;15.66;100.00;95777.38;4981416;28;20035;-66
2023/09/20 08:13:05;;;;;;;22.45;17.30;;;;;;;15.75;100.00;95791.44;4993333;28;20022;-67
2023/09/20 08:15:44;;;;;;;10.75;4.10;;;;;;;15.88;100.00;95798.84;4986212;28;20029;-67
2023/09/20 08:20:57;;;;;;;2.80;2.53;;;;;;;16.02;100.00;95798.13;4965199;28;20034;-66
2023/09/20 09:02:14;;;;;;;;;;;;;;;16.83;100.00;95778.34;4983970;28;20072;-67
2023/09/20 09:04:49;;;;;;;5.55;2.42;;;;;;;16.85;100.00;95781.66;4992743;28;19917;-66
2023/09/20 09:07:17;;;;;;;2.10;2.00;;;;;;;16.94;100.00;95787.72;4990873;28;20075;-67
2023/09/20 09:09:46;;;;;;;2.65;1.98;;;;;;;16.98;100.00;95785.53;4990233;28;20102;-66
2023/09/20 09:12:13;;;;;;;3.13;1.90;;;;;;;17.02;100.00;95789.53;4975513;28;20034;-66
2023/09/20 09:14:40;;;;;;;2.00;1.77;;;;;;;17.06;100.00;95796.13;4970473;28;20027;-66
2023/09/20 09:17:09;;;;;;;2.08;1.88;;;;;;;17.20;100.00;95796.34;4978957;28;20041;-67
2023/09/20 09:19:39;;;;;;;3.10;2.00;;;;;;;17.23;100.00;95795.97;4971910;28;20030;-66
2023/09/20 09:22:10;;;;;;;2.90;2.00;;;;;;;17.30;100.00;95787.09;4990379;28;20034;-66
2023/09/20 09:24:47;;;;;;;2.97;2.10;;;;;;;17.40;100.00;95799.31;4990025;28;20030;-67
2023/09/20 09:27:15;;;;;;;2.95;2.03;;;;;;;17.49;100.00;95800.88;4976008;28;20030;-66
2023/09/20 09:29:46;;;;;;;2.13;1.70;;;;;;;17.58;100.00;95796.31;4988584;28;20030;-66
2023/09/20 09:32:13;;;;;;;2.63;1.80;;;;;;;17.56;100.00;95806.28;4975070;28;20054;-68
2023/09/20 09:34:43;;;;;;;3.50;1.90;;;;;;;17.55;100.00;95808.13;4994026;28;20023;-67
2023/09/20 09:37:12;;;;;;;5.22;2.00;;;;;;;17.52;100.00;95802.34;4979947;28;20030;-67
2023/09/20 09:39:39;;;;;;;3.45;2.22;;;;;;;17.63;100.00;95807.22;4994175;28;20030;-66
2023/09/20 09:42:09;;;;;;;2.50;2.08;;;;;;;17.68;100.00;95802.16;4992219;28;20023;-66
2023/09/20 09:44:51;;;;;;;2.30;2.10;;;;;;;17.76;100.00;95803.91;4973841;28;20050;-66
2023/09/20 09:47:18;;;;;;;2.13;1.90;;;;;;;17.84;100.00;95805.66;4964336;28;20038;-67
2023/09/20 09:49:48;;;;;;;2.88;1.60;;;;;;;17.76;100.00;95815.38;4959732;28;20054;-67
2023/09/20 09:52:16;;;;;;;2.00;1.90;;;;;;;17.66;100.00;95811.34;4974442;28;20080;-67
2023/09/20 09:54:44;;;;;;;3.55;1.60;;;;;;;17.68;100.00;95812.81;4971819;28;20041;-67
2023/09/20 09:57:11;;;;;;;2.22;1.73;;;;;;;17.82;100.00;95815.66;4993769;28;20394;-68
2023/09/20 09:59:39;;;;;;;1.70;1.60;;;;;;;17.85;100.00;95809.97;4973845;28;20026;-67
2023/09/20 10:02:17;;;;;;;2.55;1.63;;;;;;;18.03;100.00;95805.13;4993136;28;20082;-67
2023/09/20 10:04:53;;;;;;;2.88;1.70;;;;;;;18.15;100.00;95810.78;5013624;28;20020;-66
2023/09/20 10:07:23;;;;;;;2.42;1.67;;;;;;;18.26;100.00;95809.47;5028719;28;20033;-67
2023/09/20 10:09:57;;;;;;;2.55;1.50;;;;;;;18.34;100.00;95808.53;4992215;28;20026;-67
2023/09/20 10:12:24;;;;;;;3.53;1.70;;;;;;;18.43;100.00;95810.06;4992040;28;20042;-66
2023/09/20 10:14:52;;;;;;;2.90;1.70;;;;;;;18.58;100.00;95820.69;4969887;28;20031;-67
2023/09/20 10:17:20;;;;;;;3.72;1.58;;;;;;;18.83;100.00;95811.50;4960722;28;20041;-67
2023/09/20 10:19:53;;;;;;;5.20;1.70;;;;;;;18.96;100.00;95819.59;4969852;28;20029;-66
2023/09/20 10:22:26;;;;;;;2.50;1.83;;;;;;;19.09;100.00;95821.59;4972106;28;20037;-67
2023/09/20 10:25:00;;;;;;;1.67;1.58;;;;;;;19.07;100.00;95820.97;4972935;28;20027;-66
2023/09/20 10:27:30;;;;;;;1.85;1.75;;;;;;;19.16;100.00;95818.97;4997042;28;20159;-67
2023/09/20 10:30:17;;;;;;;1.90;1.73;;;;;;;19.43;100.00;95821.84;4967875;28;20030;-67
2023/09/20 10:32:47;;;;;;;1.80;1.70;;;;;;;19.64;100.00;95826.31;4993367;28;20041;-66
2023/09/20 10:35:19;;;;;;;3.13;1.42;;;;;;;19.72;100.00;95826.16;4991974;28;20030;-64
2023/09/20 10:38:21;;;;;;;4.90;1.52;;;;;;;19.80;100.00;95821.69;4981393;28;20034;-67
2023/09/20 10:40:55;;;;;;;2.97;1.40;;;;;;;19.92;100.00;95824.66;4991712;28;20037;-64
2023/09/20 10:43:36;;;;;;;3.33;1.40;;;;;;;20.06;100.00;95822.88;4989827;28;20026;-65
2023/09/20 10:46:14;;;;;;;1.20;1.20;;;;;;;20.03;100.00;95826.75;4983380;28;20042;-65
2023/09/20 10:48:49;;;;;;;1.70;1.60;;;;;;;20.09;100.00;95820.59;4976540;28;20491;-64
2023/09/20 10:51:52;;;;;;;1.98;1.70;;;;;;;20.39;100.00;95819.50;4986298;28;20525;-65
2023/09/20 10:54:22;;;;;;;1.40;1.40;;;;;;;20.36;100.00;95807.38;4991804;28;20121;-64
2023/09/20 10:56:51;;;;;;;2.25;1.40;;;;;;;20.56;100.00;95814.63;4976457;28;20032;-64
2023/09/20 10:59:24;;;;;;;5.70;2.03;;;;;;;20.93;100.00;95803.59;4991742;28;20117;-64
2023/09/20 11:01:56;;;;;;;1.92;1.40;;;;;;;21.05;100.00;95801.94;4986592;28;20074;-64
2023/09/20 11:04:24;;;;;;;1.45;1.33;;;;;;;21.02;100.00;95805.88;4969925;28;20495;-64
2023/09/20 11:06:54;;;;;;;1.30;1.20;;;;;;;21.21;100.00;95799.91;4993285;28;20394;-64
2023/09/20 11:09:25;;;;;;;1.90;1.40;;;;;;;21.55;100.00;95788.13;4991508;28;20054;-64
2023/09/20 11:11:52;;;;;;;1.42;1.33;;;;;;;21.65;100.00;95781.50;4988242;28;20033;-65
2023/09/20 11:14:19;;;;;;;1.58;1.48;;;;;;;21.67;100.00;95788.31;4975809;28;20542;-64
2023/09/20 11:16:44;;;;;;;3.65;1.40;;;;;;;21.90;100.00;95787.03;4986739;28;20030;-65
2023/09/20 11:19:12;;;;;;;1.65;1.55;;;;;;;22.02;100.00;95776.47;4987736;28;20019;-65
2023/09/20 11:21:45;;;;;;;1.58;1.48;;;;;;;22.12;100.00;95779.53;4974921;28;20027;-64
2023/09/20 11:24:20;;;;;;;1.52;1.30;;;;;;;22.33;100.00;95773.03;4965595;28;20026;-65
2023/09/20 11:26:47;;;;;;;3.10;1.50;;;;;;;22.30;100.00;95778.81;4992413;28;20320;-65
2023/09/20 11:29:16;;;;;;;1.38;1.38;;;;;;;22.24;100.00;95779.69;4973374;28;20027;-65
2023/09/20 11:31:48;;;;;;;2.75;1.58;;;;;;;22.06;100.00;95777.69;4969546;28;20018;-64
2023/09/20 11:34:17;;;;;;;2.70;1.50;;;;;;;21.95;100.00;95768.44;4995582;28;20045;-65
2023/09/20 11:36:44;;;;;;;1.80;1.40;;;;;;;22.10;100.00;95744.03;4978636;28;20022;-65
2023/09/20 11:39:17;;;;;;;1.77;1.67;;;;;;;22.14;100.00;95745.28;4992178;28;20034;-65
2023/09/20 11:41:46;;;;;;;1.50;1.40;;;;;;;22.20;100.00;95754.31;4979932;28;20491;-65
2023/09/20 11:44:16;;;;;;;1.67;1.55;;;;;;;22.33;100.00;95738.16;4975713;28;20030;-65
2023/09/20 11:46:50;;;;;;;1.90;1.40;;;;;;;22.54;100.00;95733.53;4965866;28;20042;-65
2023/09/20 11:49:17;;;;;;;2.40;1.50;;;;;;;22.64;100.00;95721.47;4967366;28;20058;-65
2023/09/20 11:51:43;;;;;;;2.15;1.70;;;;;;;22.69;100.00;95719.00;4976621;28;20479;-65
2023/09/20 11:54:10;;;;;;;2.25;1.70;;;;;;;22.75;100.00;95743.06;4976566;28;20015;-64
2023/09/20 11:56:37;;;;;;;1.38;1.35;;;;;;;22.87;100.00;95723.59;4986958;28;20023;-65
2023/09/20 11:59:09;;;;;;;3.60;1.50;;;;;;;22.94;100.00;95716.28;4991376;28;20015;-65
2023/09/20 12:01:40;;;;;;;1.52;1.42;;;;;;;23.15;100.00;95712.41;4978197;28;20395;-65
2023/09/20 12:04:07;;;;;;;1.73;1.63;;;;;;;23.44;100.00;95704.69;4977847;28;20027;-65
2023/09/20 12:06:33;;;;;;;3.10;1.63;;;;;;;23.46;100.00;95691.88;4989326;28;20425;-65
2023/09/20 12:09:00;;;;;;;2.22;1.90;;;;;;;23.65;100.00;95689.19;4987768;28;20117;-64
2023/09/20 12:11:28;;;;;;;4.43;1.92;;;;;;;23.34;100.00;95690.16;4993812;28;20015;-65
2023/09/20 12:13:56;;;;;;;2.05;1.85;;;;;;;22.85;100.00;95706.88;4994893;28;20518;-65